CENAH08 LTAB-LTBA
Flight info
| Callsign | CENAH08 |
|---|---|
| Flight time | N/A |
| Altitude | 24000 |
| Route | DCT HAY R32 BAG G8 TOKER |
| Aircraft | B350/L-SBGRW/S |
Departure
| Time | 2026-05-07 19:13 |
|---|---|
| Airport | Güvercinlik Airport (LTAB) |
Arrival
| Time | N/A |
|---|---|
| Airport | İstanbul Atatürk Airport (LTBA) |
| Time | Latitude | Longitude | Altitude | Speed | Heading |
|---|---|---|---|---|---|
| 2026-05-07 18:58 | 39.93740 | 32.73469 | 2690 ft | 0 kts | 323° |
| 2026-05-07 19:01 | 39.93747 | 32.73462 | 2690 ft | 1 kts | 323° |
| 2026-05-07 19:02 | 39.93746 | 32.73463 | 2690 ft | 0 kts | 323° |
| 2026-05-07 19:02 | 39.93751 | 32.73458 | 2690 ft | 2 kts | 319° |
| 2026-05-07 19:02 | 39.93758 | 32.73452 | 2690 ft | 5 kts | 329° |
| 2026-05-07 19:03 | 39.93770 | 32.73441 | 2690 ft | 5 kts | 311° |
| 2026-05-07 19:03 | 39.93771 | 32.73442 | 2690 ft | 2 kts | 283° |
| 2026-05-07 19:03 | 39.93767 | 32.73463 | 2690 ft | 3 kts | 283° |
| 2026-05-07 19:03 | 39.93759 | 32.73455 | 2690 ft | 4 kts | 180° |
| 2026-05-07 19:04 | 39.93724 | 32.73455 | 2690 ft | 10 kts | 186° |
| 2026-05-07 19:04 | 39.93642 | 32.73397 | 2690 ft | 15 kts | 225° |
| 2026-05-07 19:04 | 39.93609 | 32.73469 | 2690 ft | 14 kts | 98° |
| 2026-05-07 19:04 | 39.93595 | 32.73596 | 2690 ft | 15 kts | 97° |
| 2026-05-07 19:05 | 39.93596 | 32.73722 | 2690 ft | 10 kts | 66° |
| 2026-05-07 19:05 | 39.93599 | 32.73733 | 2690 ft | 10 kts | 68° |
| 2026-05-07 19:05 | 39.93613 | 32.73778 | 2690 ft | 13 kts | 68° |
| 2026-05-07 19:05 | 39.93646 | 32.73861 | 2690 ft | 8 kts | 63° |
| 2026-05-07 19:06 | 39.93665 | 32.73904 | 2690 ft | 2 kts | 49° |
| 2026-05-07 19:06 | 39.93778 | 32.73901 | 2690 ft | 15 kts | 0° |
| 2026-05-07 19:06 | 39.93857 | 32.73943 | 2690 ft | 14 kts | 79° |
| 2026-05-07 19:07 | 39.93859 | 32.74001 | 2690 ft | 16 kts | 89° |
| 2026-05-07 19:07 | 39.93856 | 32.74084 | 2690 ft | 16 kts | 94° |
| 2026-05-07 19:07 | 39.93854 | 32.74239 | 2690 ft | 18 kts | 90° |
| 2026-05-07 19:08 | 39.93858 | 32.74387 | 2690 ft | 14 kts | 90° |
| 2026-05-07 19:08 | 39.93859 | 32.74492 | 2690 ft | 10 kts | 90° |
| 2026-05-07 19:08 | 39.93858 | 32.74572 | 2690 ft | 11 kts | 91° |
| 2026-05-07 19:08 | 39.93856 | 32.74643 | 2690 ft | 0 kts | 90° |
| 2026-05-07 19:09 | 39.93855 | 32.74663 | 2690 ft | 10 kts | 95° |
| 2026-05-07 19:09 | 39.93857 | 32.74790 | 2690 ft | 12 kts | 85° |
| 2026-05-07 19:09 | 39.93855 | 32.74897 | 2690 ft | 10 kts | 91° |
| 2026-05-07 19:09 | 39.93855 | 32.74919 | 2690 ft | 3 kts | 91° |
| 2026-05-07 19:10 | 39.93855 | 32.74920 | 2690 ft | 0 kts | 91° |
| 2026-05-07 19:10 | 39.93854 | 32.74947 | 2690 ft | 7 kts | 91° |
| 2026-05-07 19:10 | 39.93853 | 32.75032 | 2690 ft | 6 kts | 169° |
| 2026-05-07 19:11 | 39.93839 | 32.75011 | 2690 ft | 0 kts | 245° |
| 2026-05-07 19:12 | 39.93782 | 32.74854 | 2690 ft | 55 kts | 245° |
| 2026-05-07 19:12 | 39.93521 | 32.74137 | 2690 ft | 113 kts | 247° |
| 2026-05-07 19:12 | 39.93102 | 32.73104 | 2836 ft | 144 kts | 238° |
| 2026-05-07 19:13 | 39.92474 | 32.71963 | 3280 ft | 165 kts | 228° |
| 2026-05-07 19:13 | 39.91558 | 32.71135 | 3888 ft | 156 kts | 205° |
| 2026-05-07 19:13 | 39.90490 | 32.70750 | 4316 ft | 161 kts | 197° |
| 2026-05-07 19:13 | 39.89378 | 32.70540 | 4749 ft | 164 kts | 181° |
| 2026-05-07 19:14 | 39.88301 | 32.70961 | 5184 ft | 167 kts | 154° |
| 2026-05-07 19:14 | 39.87253 | 32.71637 | 5611 ft | 169 kts | 156° |
| 2026-05-07 19:14 | 39.86134 | 32.72097 | 5962 ft | 172 kts | 189° |
| 2026-05-07 19:14 | 39.85050 | 32.71529 | 6344 ft | 167 kts | 213° |
| 2026-05-07 19:15 | 39.83996 | 32.70932 | 6896 ft | 163 kts | 207° |
| 2026-05-07 19:15 | 39.82948 | 32.70379 | 7402 ft | 161 kts | 208° |
| 2026-05-07 19:15 | 39.82323 | 32.69884 | 7645 ft | 159 kts | 227° |
| 2026-05-07 19:15 | 39.81947 | 32.69316 | 7841 ft | 157 kts | 240° |
| 2026-05-07 19:16 | 39.81594 | 32.68008 | 8291 ft | 153 kts | 265° |
| 2026-05-07 19:16 | 39.81721 | 32.66657 | 8783 ft | 151 kts | 289° |
| 2026-05-07 19:16 | 39.82430 | 32.65665 | 9282 ft | 154 kts | 315° |
| 2026-05-07 19:16 | 39.83144 | 32.64627 | 9705 ft | 153 kts | 307° |
| 2026-05-07 19:17 | 39.83840 | 32.63562 | 10141 ft | 155 kts | 305° |
| 2026-05-07 19:17 | 39.84525 | 32.62478 | 10577 ft | 156 kts | 304° |
| 2026-05-07 19:17 | 39.85207 | 32.61378 | 11007 ft | 157 kts | 304° |
| 2026-05-07 19:17 | 39.85890 | 32.60263 | 11434 ft | 158 kts | 304° |
| 2026-05-07 19:18 | 39.86572 | 32.59142 | 11855 ft | 159 kts | 304° |
| 2026-05-07 19:18 | 39.87259 | 32.58010 | 12269 ft | 160 kts | 303° |
| 2026-05-07 19:18 | 39.87948 | 32.56871 | 12681 ft | 161 kts | 303° |
| 2026-05-07 19:18 | 39.88641 | 32.55722 | 13086 ft | 162 kts | 303° |
| 2026-05-07 19:19 | 39.89339 | 32.54566 | 13486 ft | 163 kts | 303° |
| 2026-05-07 19:19 | 39.90041 | 32.53401 | 13884 ft | 164 kts | 303° |
| 2026-05-07 19:19 | 39.91083 | 32.51671 | 14464 ft | 165 kts | 303° |
| 2026-05-07 19:19 | 39.92512 | 32.49298 | 15239 ft | 167 kts | 303° |
| 2026-05-07 19:20 | 39.93958 | 32.46893 | 15963 ft | 172 kts | 303° |
| 2026-05-07 19:20 | 39.95488 | 32.44346 | 16554 ft | 179 kts | 303° |
| 2026-05-07 19:20 | 39.96505 | 32.42653 | 17013 ft | 180 kts | 303° |
| 2026-05-07 19:20 | 39.98054 | 32.40072 | 17677 ft | 182 kts | 303° |
| 2026-05-07 19:21 | 39.99620 | 32.37460 | 18314 ft | 184 kts | 303° |
| 2026-05-07 19:21 | 40.01720 | 32.33955 | 19130 ft | 186 kts | 303° |
| 2026-05-07 19:21 | 40.03311 | 32.31296 | 19841 ft | 181 kts | 303° |
| 2026-05-07 19:21 | 40.04824 | 32.28766 | 20630 ft | 174 kts | 303° |
| 2026-05-07 19:22 | 40.05831 | 32.27080 | 21085 ft | 174 kts | 303° |
| 2026-05-07 19:22 | 40.07316 | 32.24592 | 21729 ft | 174 kts | 303° |
| 2026-05-07 19:22 | 40.08799 | 32.22105 | 22356 ft | 174 kts | 303° |
| 2026-05-07 19:22 | 40.10284 | 32.19615 | 22963 ft | 174 kts | 303° |
| 2026-05-07 19:23 | 40.11767 | 32.17125 | 23552 ft | 174 kts | 303° |
| 2026-05-07 19:23 | 40.13281 | 32.14580 | 23966 ft | 183 kts | 303° |
| 2026-05-07 19:23 | 40.14903 | 32.11852 | 24169 ft | 200 kts | 303° |
| 2026-05-07 19:23 | 40.16683 | 32.08821 | 24170 ft | 219 kts | 298° |
| 2026-05-07 19:24 | 40.17318 | 32.04887 | 24169 ft | 229 kts | 276° |
| 2026-05-07 19:24 | 40.17662 | 32.00588 | 24165 ft | 246 kts | 275° |
| 2026-05-07 19:24 | 40.17995 | 31.96198 | 24158 ft | 246 kts | 275° |
| 2026-05-07 19:24 | 40.18328 | 31.91689 | 24157 ft | 246 kts | 275° |
| 2026-05-07 19:25 | 40.18656 | 31.87305 | 24157 ft | 246 kts | 277° |
| 2026-05-07 19:25 | 40.19190 | 31.82902 | 24158 ft | 246 kts | 278° |
| 2026-05-07 19:25 | 40.19724 | 31.78485 | 24157 ft | 246 kts | 278° |
| 2026-05-07 19:25 | 40.20251 | 31.74075 | 24157 ft | 245 kts | 278° |
| 2026-05-07 19:26 | 40.20774 | 31.69666 | 24157 ft | 245 kts | 278° |
| 2026-05-07 19:26 | 40.21296 | 31.65253 | 24157 ft | 245 kts | 278° |
| 2026-05-07 19:26 | 40.21817 | 31.60835 | 24157 ft | 245 kts | 278° |
| 2026-05-07 19:26 | 40.22335 | 31.56423 | 24157 ft | 245 kts | 278° |
| 2026-05-07 19:27 | 40.22852 | 31.52010 | 24157 ft | 245 kts | 278° |
| 2026-05-07 19:27 | 40.23367 | 31.47591 | 24157 ft | 245 kts | 278° |
| 2026-05-07 19:27 | 40.23881 | 31.43172 | 24157 ft | 246 kts | 278° |
| 2026-05-07 19:27 | 40.24392 | 31.38758 | 24157 ft | 246 kts | 278° |
| 2026-05-07 19:28 | 40.24903 | 31.34338 | 24157 ft | 246 kts | 278° |
| 2026-05-07 19:28 | 40.25007 | 31.33435 | 24157 ft | 246 kts | 278° |
| 2026-05-07 19:30 | 40.25306 | 31.30830 | 24157 ft | 246 kts | 278° |
| 2026-05-07 19:30 | 40.25814 | 31.26408 | 24157 ft | 246 kts | 277° |
| 2026-05-07 19:31 | 40.26319 | 31.21994 | 24157 ft | 246 kts | 277° |
| 2026-05-07 19:31 | 40.26373 | 31.21514 | 24157 ft | 246 kts | 277° |
| 2026-05-07 19:31 | 40.26735 | 31.18336 | 24157 ft | 246 kts | 277° |
| 2026-05-07 19:32 | 40.27238 | 31.13916 | 24157 ft | 246 kts | 277° |
| 2026-05-07 19:32 | 40.27739 | 31.09486 | 24157 ft | 246 kts | 277° |
| 2026-05-07 19:32 | 40.28232 | 31.05120 | 24157 ft | 246 kts | 277° |
| 2026-05-07 19:32 | 40.28723 | 31.00749 | 24157 ft | 246 kts | 277° |
| 2026-05-07 19:33 | 40.28762 | 31.00403 | 24157 ft | 246 kts | 277° |
| 2026-05-07 19:33 | 40.29108 | 30.97311 | 24157 ft | 246 kts | 277° |
| 2026-05-07 19:33 | 40.29603 | 30.92879 | 24157 ft | 246 kts | 277° |
| 2026-05-07 19:34 | 40.30096 | 30.88454 | 24157 ft | 246 kts | 277° |
| 2026-05-07 19:34 | 40.30588 | 30.84020 | 24157 ft | 246 kts | 277° |
| 2026-05-07 19:34 | 40.31077 | 30.79595 | 24157 ft | 246 kts | 277° |
| 2026-05-07 19:34 | 40.32064 | 30.75342 | 24161 ft | 248 kts | 295° |
| 2026-05-07 19:35 | 40.33659 | 30.71335 | 24158 ft | 248 kts | 295° |
| 2026-05-07 19:35 | 40.35248 | 30.67321 | 24157 ft | 248 kts | 295° |
| 2026-05-07 19:35 | 40.36832 | 30.63311 | 24157 ft | 248 kts | 295° |
| 2026-05-07 19:35 | 40.38417 | 30.59290 | 24157 ft | 248 kts | 295° |
| 2026-05-07 19:36 | 40.40003 | 30.55259 | 24119 ft | 250 kts | 295° |
| 2026-05-07 19:36 | 40.41628 | 30.51124 | 23642 ft | 261 kts | 295° |
| 2026-05-07 19:36 | 40.43321 | 30.46812 | 22817 ft | 271 kts | 295° |
| 2026-05-07 19:36 | 40.45039 | 30.42431 | 22020 ft | 267 kts | 295° |
| 2026-05-07 19:37 | 40.46729 | 30.38119 | 21361 ft | 262 kts | 295° |
| 2026-05-07 19:37 | 40.48311 | 30.34018 | 21166 ft | 237 kts | 294° |
| 2026-05-07 19:37 | 40.49712 | 30.30298 | 21010 ft | 220 kts | 294° |
| 2026-05-07 19:37 | 40.51042 | 30.26770 | 20754 ft | 212 kts | 294° |
| 2026-05-07 19:38 | 40.52326 | 30.23365 | 20556 ft | 210 kts | 294° |
| 2026-05-07 19:38 | 40.53662 | 30.19814 | 19933 ft | 222 kts | 294° |
| 2026-05-07 19:38 | 40.55058 | 30.16101 | 19308 ft | 230 kts | 294° |
| 2026-05-07 19:38 | 40.56491 | 30.12285 | 18666 ft | 235 kts | 294° |
| 2026-05-07 19:39 | 40.57909 | 30.08404 | 18177 ft | 230 kts | 287° |